createdAt,value
2023-04-16T00:04:24.361Z,1.38
2023-04-16T00:06:51.134Z,1.55
2023-04-16T00:09:18.061Z,1.70
2023-04-16T00:11:44.783Z,1.90
2023-04-16T00:14:11.573Z,2.42
2023-04-16T00:19:05.590Z,2.10
2023-04-16T00:21:32.555Z,2.15
2023-04-16T00:23:59.371Z,2.20
2023-04-16T00:28:52.828Z,2.40
2023-04-16T00:33:53.496Z,2.17
2023-04-16T00:36:20.251Z,2.17
2023-04-16T00:41:13.681Z,2.20
2023-04-16T00:46:08.794Z,2.83
2023-04-16T00:48:37.889Z,2.30
2023-04-16T00:51:08.723Z,2.80
2023-04-16T00:53:35.819Z,2.90
2023-04-16T00:56:07.323Z,2.80
2023-04-16T00:58:35.637Z,3.40
2023-04-16T01:01:02.649Z,2.83
2023-04-16T01:03:41.082Z,2.67
2023-04-16T01:06:08.305Z,2.60
2023-04-16T01:08:35.271Z,2.72
2023-04-16T01:11:03.094Z,2.97
2023-04-16T01:13:30.644Z,3.15
2023-04-16T01:15:57.490Z,2.58
2023-04-16T01:18:24.857Z,2.83
2023-04-16T01:20:51.840Z,3.38
2023-04-16T01:23:19.518Z,2.85
2023-04-16T01:25:47.275Z,3.25
2023-04-16T01:28:14.455Z,3.08
2023-04-16T01:30:41.574Z,3.20
2023-04-16T01:33:13.511Z,3.28
2023-04-16T01:35:43.540Z,3.60
2023-04-16T01:40:59.652Z,3.65
2023-04-16T01:43:26.562Z,3.58
2023-04-16T01:48:26.309Z,3.42
2023-04-16T01:53:19.695Z,3.47
2023-04-16T01:55:46.415Z,3.55
2023-04-16T01:58:14.784Z,2.63
2023-04-16T02:00:41.596Z,3.05
2023-04-16T02:05:35.671Z,2.50
2023-04-16T02:08:02.486Z,2.20
2023-04-16T02:12:56.531Z,2.00
2023-04-16T02:15:25.216Z,1.90
2023-04-16T02:17:56.673Z,1.90
2023-04-16T02:20:23.701Z,1.50
2023-04-16T02:22:50.467Z,1.88
2023-04-16T02:25:17.344Z,1.60
2023-04-16T02:30:11.356Z,1.90
2023-04-16T02:32:38.128Z,1.70
2023-04-16T02:35:05.724Z,1.77
2023-04-16T02:37:32.504Z,1.60
2023-04-16T02:39:59.290Z,1.50
2023-04-16T02:42:25.987Z,1.50
2023-04-16T02:44:52.704Z,1.52
2023-04-16T02:47:19.525Z,1.50
2023-04-16T02:52:14.955Z,2.22
2023-04-16T02:54:42.350Z,1.75
2023-04-16T02:57:09.297Z,1.73
2023-04-16T02:59:36.333Z,2.00
2023-04-16T03:02:03.243Z,2.00
2023-04-16T03:06:56.866Z,1.90
2023-04-16T03:09:23.566Z,1.30
2023-04-16T03:11:50.337Z,2.05
2023-04-16T03:14:17.515Z,2.00
2023-04-16T03:16:44.286Z,2.00
2023-04-16T03:19:11.168Z,2.08
2023-04-16T03:21:38.090Z,1.92
2023-04-16T03:24:04.883Z,1.92
2023-04-16T03:26:31.694Z,1.73
2023-04-16T03:28:58.467Z,1.90
2023-04-16T03:31:26.004Z,1.90
2023-04-16T03:33:52.807Z,2.22
2023-04-16T03:36:19.953Z,2.08
2023-04-16T03:38:46.696Z,2.30
2023-04-16T03:41:13.470Z,1.80
2023-04-16T03:43:40.281Z,2.13
2023-04-16T03:46:07.196Z,1.83
2023-04-16T03:51:00.653Z,2.25
2023-04-16T03:53:27.493Z,2.20
2023-04-16T03:58:21.479Z,2.08
2023-04-16T04:00:52.976Z,2.17
2023-04-16T04:03:19.939Z,2.03
2023-04-16T04:05:46.970Z,2.03
2023-04-16T04:08:13.714Z,2.13
2023-04-16T04:10:40.640Z,2.35
2023-04-16T04:13:07.773Z,2.60
2023-04-16T04:15:34.532Z,2.10
2023-04-16T04:18:01.388Z,2.00
2023-04-16T04:22:54.907Z,2.50
2023-04-16T04:25:21.726Z,2.25
2023-04-16T04:30:15.105Z,2.58
2023-04-16T04:32:41.905Z,2.38
2023-04-16T04:35:09.092Z,2.20
2023-04-16T04:37:35.982Z,1.95
2023-04-16T04:42:29.397Z,2.33
2023-04-16T04:44:56.159Z,2.60
2023-04-16T04:47:22.968Z,2.28
2023-04-16T04:52:16.525Z,2.40
2023-04-16T04:57:09.938Z,2.30
2023-04-16T04:59:36.796Z,2.13
2023-04-16T05:04:31.363Z,3.00
2023-04-16T05:06:58.215Z,2.40
2023-04-16T05:09:24.930Z,2.75
2023-04-16T05:11:51.725Z,2.70
2023-04-16T05:14:18.509Z,2.30
2023-04-16T05:16:45.565Z,2.75
2023-04-16T05:19:12.429Z,2.10
2023-04-16T05:24:06.672Z,2.13
2023-04-16T05:26:33.357Z,2.40
2023-04-16T05:29:00.107Z,2.45
2023-04-16T05:31:26.986Z,1.70
2023-04-16T05:36:20.561Z,1.95
2023-04-16T05:41:13.963Z,2.00
2023-04-16T05:43:40.703Z,1.50
2023-04-16T05:46:07.568Z,2.08
2023-04-16T05:51:02.709Z,1.80
2023-04-16T05:53:29.467Z,1.95
2023-04-16T05:55:56.233Z,2.03
2023-04-16T05:58:23.058Z,2.28
2023-04-16T06:00:49.940Z,2.10
2023-04-16T06:05:44.014Z,1.90
2023-04-16T06:08:11.097Z,2.30
2023-04-16T06:10:38.055Z,2.22
2023-04-16T06:13:04.804Z,2.47
2023-04-16T06:15:31.567Z,2.60
2023-04-16T06:18:00.711Z,3.40
2023-04-16T06:20:27.925Z,3.30
2023-04-16T06:22:56.150Z,4.20
2023-04-16T06:25:22.940Z,4.45
2023-04-16T06:27:49.672Z,4.53
2023-04-16T06:30:16.645Z,3.92
2023-04-16T06:32:44.352Z,4.13
2023-04-16T06:35:11.267Z,3.97
2023-04-16T06:40:05.363Z,2.70
2023-04-16T06:42:32.131Z,3.25
2023-04-16T06:44:58.840Z,3.45
2023-04-16T06:47:25.681Z,3.47
2023-04-16T06:49:52.525Z,3.30
2023-04-16T06:54:45.918Z,3.55
2023-04-16T06:59:39.515Z,3.25
2023-04-16T07:02:07.991Z,3.20
2023-04-16T07:04:34.785Z,3.00
2023-04-16T07:07:01.545Z,2.90
2023-04-16T07:09:28.319Z,3.10
2023-04-16T07:11:55.313Z,3.15
2023-04-16T07:14:22.077Z,2.78
2023-04-16T07:19:15.685Z,3.55
2023-04-16T07:21:43.765Z,3.40
2023-04-16T07:24:11.724Z,2.60
2023-04-16T07:26:38.570Z,3.05
2023-04-16T07:31:32.328Z,3.25
2023-04-16T07:36:28.291Z,2.75
2023-04-16T07:38:56.087Z,3.00
2023-04-16T07:41:22.951Z,2.67
2023-04-16T07:43:49.815Z,2.63
2023-04-16T07:46:16.850Z,2.50
2023-04-16T07:48:43.746Z,6.63
2023-04-16T07:51:10.528Z,3.90
2023-04-16T07:56:04.117Z,2.85
2023-04-16T07:58:31.073Z,2.75
2023-04-16T08:00:58.602Z,3.13
2023-04-16T08:03:25.925Z,3.70
2023-04-16T08:05:52.862Z,3.28
2023-04-16T08:08:19.801Z,6.18
2023-04-16T08:10:46.607Z,3.67
2023-04-16T08:13:13.478Z,2.97
2023-04-16T08:15:40.264Z,4.13
2023-04-16T08:20:39.626Z,5.43
2023-04-16T08:23:06.391Z,3.78
2023-04-16T08:27:59.721Z,4.25
2023-04-16T08:30:26.589Z,4.05
2023-04-16T08:32:53.535Z,4.25
2023-04-16T08:35:20.409Z,5.00
2023-04-16T08:37:47.177Z,4.30
2023-04-16T08:40:14.024Z,4.15
2023-04-16T08:42:48.667Z,2.20
2023-04-16T08:45:17.749Z,2.05
2023-04-16T08:47:49.392Z,2.47
2023-04-16T08:50:18.268Z,3.13
2023-04-16T08:52:53.539Z,2.33
2023-04-16T08:55:26.355Z,2.33
2023-04-16T08:57:57.562Z,2.60
2023-04-16T09:00:24.663Z,3.00
2023-04-16T09:02:52.183Z,2.00
2023-04-16T09:05:20.799Z,2.10
2023-04-16T09:07:48.488Z,1.67
2023-04-16T09:10:16.604Z,2.50
2023-04-16T09:12:45.020Z,2.10
2023-04-16T09:15:13.071Z,2.00
2023-04-16T09:17:40.256Z,1.77
2023-04-16T09:20:09.005Z,1.70
2023-04-16T09:22:36.881Z,2.15
2023-04-16T09:25:03.889Z,2.30
2023-04-16T09:27:31.853Z,2.00
2023-04-16T09:29:59.108Z,1.98
2023-04-16T09:32:27.722Z,2.35
2023-04-16T09:34:57.211Z,2.42
2023-04-16T09:37:24.706Z,2.20
2023-04-16T09:40:00.094Z,1.67
2023-04-16T09:42:28.825Z,1.85
2023-04-16T09:44:59.398Z,2.05
2023-04-16T09:47:42.679Z,2.03
2023-04-16T09:50:15.381Z,1.85
2023-04-16T09:52:48.922Z,1.77
2023-04-16T09:55:15.797Z,1.70
2023-04-16T09:57:42.600Z,1.20
2023-04-16T10:00:10.506Z,1.77
2023-04-16T10:02:41.810Z,1.63
2023-04-16T10:05:09.383Z,2.08
2023-04-16T10:07:37.375Z,2.17
2023-04-16T10:10:05.088Z,2.40
2023-04-16T10:12:32.959Z,2.20
2023-04-16T10:15:00.163Z,2.13
2023-04-16T10:17:31.639Z,2.33
2023-04-16T10:20:00.050Z,2.30
2023-04-16T10:22:26.830Z,2.17
2023-04-16T10:24:54.730Z,2.17
2023-04-16T10:27:21.755Z,4.97
2023-04-16T10:29:49.589Z,2.67
2023-04-16T10:32:18.021Z,2.45
2023-04-16T10:34:45.625Z,2.00
2023-04-16T10:37:12.685Z,2.55
2023-04-16T10:39:39.509Z,1.67
2023-04-16T10:42:12.337Z,1.98
2023-04-16T10:44:45.446Z,2.20
2023-04-16T10:47:14.034Z,1.80
2023-04-16T10:49:43.561Z,1.92
2023-04-16T10:52:18.881Z,1.65
2023-04-16T10:54:48.176Z,1.95
2023-04-16T10:57:19.822Z,1.92
2023-04-16T10:59:48.481Z,1.88
2023-04-16T11:02:20.565Z,1.60
2023-04-16T11:04:49.541Z,1.60
2023-04-16T11:07:35.013Z,1.85
2023-04-16T11:10:04.865Z,1.83
2023-04-16T11:12:38.909Z,2.33
2023-04-16T11:15:09.553Z,1.83
2023-04-16T11:17:52.617Z,1.98
2023-04-16T11:20:27.870Z,2.03
2023-04-16T11:22:56.908Z,1.90
2023-04-16T11:25:29.508Z,1.90
2023-04-16T11:27:59.908Z,2.03
2023-04-16T11:30:37.329Z,1.75
2023-04-16T11:33:13.214Z,2.05
2023-04-16T11:35:40.516Z,2.00
2023-04-16T11:38:07.658Z,2.00
2023-04-16T11:40:36.450Z,2.17
2023-04-16T11:43:12.599Z,2.20
2023-04-16T11:45:39.369Z,2.00
2023-04-16T11:48:06.418Z,1.92
2023-04-16T11:50:33.548Z,2.00
2023-04-16T11:53:06.073Z,2.22
2023-04-16T11:55:42.690Z,2.42
2023-04-16T11:58:13.493Z,2.38
2023-04-16T12:00:41.567Z,2.40
2023-04-16T12:03:08.701Z,2.38
2023-04-16T12:05:39.719Z,1.90
2023-04-16T12:08:08.776Z,2.50
2023-04-16T12:10:54.734Z,2.53
2023-04-16T12:13:21.708Z,2.45
2023-04-16T12:15:53.688Z,2.60
2023-04-16T12:18:27.130Z,2.97
2023-04-16T12:20:54.106Z,3.00
2023-04-16T12:23:27.977Z,2.83
2023-04-16T12:26:02.347Z,2.38
2023-04-16T12:28:35.479Z,2.65
2023-04-16T12:31:03.427Z,3.40
2023-04-16T12:33:30.877Z,2.60
2023-04-16T12:35:57.819Z,3.10
2023-04-16T12:38:25.692Z,3.50
2023-04-16T12:40:52.788Z,3.05
2023-04-16T12:43:21.437Z,3.40
2023-04-16T12:45:49.404Z,2.80
2023-04-16T12:48:16.288Z,2.83
2023-04-16T12:50:44.311Z,3.40
2023-04-16T12:53:11.989Z,3.15
2023-04-16T12:55:38.843Z,3.17
2023-04-16T12:58:05.732Z,2.75
2023-04-16T13:00:32.793Z,2.92
2023-04-16T13:03:02.556Z,2.97
2023-04-16T13:05:29.379Z,2.35
2023-04-16T13:07:56.182Z,2.42
2023-04-16T13:10:23.629Z,3.03
2023-04-16T13:12:50.544Z,3.00
2023-04-16T13:15:17.339Z,2.53
2023-04-16T13:17:44.189Z,2.50
2023-04-16T13:20:11.337Z,2.42
2023-04-16T13:22:38.032Z,2.83
2023-04-16T13:25:05.707Z,2.58
2023-04-16T13:27:32.601Z,2.30
2023-04-16T13:29:59.442Z,2.63
2023-04-16T13:32:26.440Z,2.72
2023-04-16T13:34:53.171Z,2.70
2023-04-16T13:37:22.549Z,2.78
2023-04-16T13:39:49.331Z,2.50
2023-04-16T13:42:16.774Z,3.10
2023-04-16T13:44:43.677Z,2.88
2023-04-16T13:47:11.332Z,2.72
2023-04-16T13:49:38.181Z,2.97
2023-04-16T13:52:05.078Z,2.75
2023-04-16T13:54:31.901Z,2.60
2023-04-16T13:56:58.656Z,2.88
2023-04-16T13:59:26.507Z,2.70
2023-04-16T14:01:53.225Z,2.90
2023-04-16T14:04:22.366Z,2.90
2023-04-16T14:06:50.165Z,2.72
2023-04-16T14:09:17.166Z,2.90
2023-04-16T14:11:43.946Z,2.72
2023-04-16T14:14:10.821Z,2.95
2023-04-16T14:16:37.659Z,3.25
2023-04-16T14:19:04.523Z,2.80
2023-04-16T14:21:31.519Z,3.05
2023-04-16T14:23:58.280Z,2.50
2023-04-16T14:26:25.057Z,2.08
2023-04-16T14:28:51.907Z,2.80
2023-04-16T14:31:19.875Z,3.00
2023-04-16T14:33:47.174Z,3.05
2023-04-16T14:36:14.263Z,2.92
2023-04-16T14:38:43.235Z,2.80
2023-04-16T14:41:11.963Z,3.17
2023-04-16T14:43:40.529Z,2.97
2023-04-16T14:46:07.513Z,2.75
2023-04-16T14:48:34.270Z,2.92
2023-04-16T14:51:01.176Z,3.00
2023-04-16T14:53:28.960Z,3.08
2023-04-16T14:55:58.909Z,3.45
2023-04-16T14:58:26.168Z,2.70
2023-04-16T15:00:53.181Z,3.20
2023-04-16T15:03:20.778Z,3.22
2023-04-16T15:05:54.809Z,3.35
2023-04-16T15:08:22.746Z,2.63
2023-04-16T15:10:49.778Z,3.05
2023-04-16T15:13:16.601Z,3.15
2023-04-16T15:15:43.911Z,3.60
2023-04-16T15:18:10.870Z,3.50
2023-04-16T15:20:37.676Z,3.00
2023-04-16T15:23:04.617Z,3.13
2023-04-16T15:25:31.418Z,3.03
2023-04-16T15:27:59.240Z,3.10
2023-04-16T15:30:26.590Z,2.88
2023-04-16T15:32:55.113Z,3.25
2023-04-16T15:35:22.080Z,3.15
2023-04-16T15:37:48.878Z,3.25
2023-04-16T15:40:18.759Z,3.22
2023-04-16T15:42:45.762Z,2.80
2023-04-16T15:45:12.515Z,2.72
2023-04-16T15:47:41.685Z,2.58
2023-04-16T15:50:09.050Z,2.55
2023-04-16T15:52:36.478Z,2.50
2023-04-16T15:55:04.370Z,2.45
2023-04-16T15:57:31.400Z,2.80
2023-04-16T16:02:31.481Z,2.30
2023-04-16T16:05:00.618Z,2.33
2023-04-16T16:07:27.670Z,2.60
2023-04-16T16:09:54.511Z,2.47
2023-04-16T16:12:21.273Z,2.40
2023-04-16T16:14:48.016Z,2.40
2023-04-16T16:17:14.934Z,2.60
2023-04-16T16:19:41.668Z,3.20
2023-04-16T16:22:10.120Z,4.97
2023-04-16T16:24:36.880Z,3.22
2023-04-16T16:27:04.164Z,3.00
2023-04-16T16:29:31.280Z,4.03
2023-04-16T16:31:58.232Z,4.22
2023-04-16T16:34:25.068Z,4.13
2023-04-16T16:36:51.958Z,4.18
2023-04-16T16:39:22.311Z,2.53
2023-04-16T16:41:52.222Z,3.25
2023-04-16T16:44:20.547Z,2.40
2023-04-16T16:46:47.803Z,2.15
2023-04-16T16:49:15.634Z,2.10
2023-04-16T16:51:44.969Z,2.05
2023-04-16T16:54:11.778Z,1.73
2023-04-16T16:56:38.532Z,2.22
2023-04-16T16:59:06.122Z,2.67
2023-04-16T17:01:33.129Z,2.80
2023-04-16T17:04:00.482Z,2.30
2023-04-16T17:06:27.780Z,1.70
2023-04-16T17:08:54.688Z,1.60
2023-04-16T17:11:21.581Z,2.72
2023-04-16T17:13:48.352Z,1.77
2023-04-16T17:16:17.646Z,1.35
2023-04-16T17:18:44.616Z,1.63
2023-04-16T17:21:11.441Z,1.45
2023-04-16T17:23:39.978Z,1.27
2023-04-16T17:26:07.890Z,1.40
2023-04-16T17:28:34.787Z,1.20
2023-04-16T17:31:02.617Z,1.40
2023-04-16T17:33:29.476Z,1.20
2023-04-16T17:35:56.387Z,1.50
2023-04-16T17:38:23.183Z,3.88
2023-04-16T17:40:49.951Z,1.83
2023-04-16T17:43:16.739Z,1.33
2023-04-16T17:45:43.558Z,1.48
2023-04-16T17:48:10.992Z,1.33
2023-04-16T17:50:39.526Z,1.73
2023-04-16T17:53:06.575Z,2.17
2023-04-16T17:55:33.388Z,1.60
2023-04-16T17:58:00.584Z,1.70
2023-04-16T18:00:27.510Z,1.58
2023-04-16T18:02:56.666Z,2.20
2023-04-16T18:05:23.836Z,1.60
2023-04-16T18:07:50.646Z,1.85
2023-04-16T18:10:17.354Z,1.60
2023-04-16T18:12:44.114Z,1.60
2023-04-16T18:15:11.081Z,2.45
2023-04-16T18:17:38.041Z,1.70
2023-04-16T18:20:08.993Z,1.80
2023-04-16T18:22:35.818Z,1.50
2023-04-16T18:25:02.583Z,1.70
2023-04-16T18:27:29.972Z,1.60
2023-04-16T18:29:56.700Z,1.90
2023-04-16T18:32:23.651Z,1.42
2023-04-16T18:34:51.354Z,1.88
2023-04-16T18:37:18.167Z,1.80
2023-04-16T18:39:44.950Z,1.60
2023-04-16T18:42:11.731Z,2.00
2023-04-16T18:44:38.556Z,2.03
2023-04-16T18:47:05.507Z,2.25
2023-04-16T18:49:32.910Z,2.00
2023-04-16T18:52:02.819Z,2.03
2023-04-16T18:54:29.954Z,2.22
2023-04-16T18:56:57.775Z,2.20
2023-04-16T18:59:26.186Z,2.40
2023-04-16T19:01:54.980Z,2.40
2023-04-16T19:04:21.854Z,2.63
2023-04-16T19:06:48.823Z,2.40
2023-04-16T19:09:17.041Z,4.20
2023-04-16T19:11:44.057Z,2.78
2023-04-16T19:14:10.793Z,3.58
2023-04-16T19:16:38.983Z,2.65
2023-04-16T19:19:05.700Z,2.30
2023-04-16T19:23:59.313Z,1.90
2023-04-16T19:28:53.253Z,2.70
2023-04-16T19:31:20.399Z,2.75
2023-04-16T19:33:47.186Z,2.30
2023-04-16T19:36:13.889Z,2.75
2023-04-16T19:38:40.767Z,2.88
2023-04-16T19:41:07.676Z,2.13
2023-04-16T19:43:35.451Z,3.10
2023-04-16T19:46:02.357Z,2.97
2023-04-16T19:48:30.344Z,3.30
2023-04-16T19:50:57.272Z,2.90
2023-04-16T19:53:24.921Z,2.70
2023-04-16T19:55:51.687Z,2.42
2023-04-16T19:58:18.468Z,2.40
2023-04-16T20:00:45.358Z,2.50
2023-04-16T20:03:12.174Z,1.90
2023-04-16T20:05:38.982Z,2.40
2023-04-16T20:10:32.580Z,2.30
2023-04-16T20:12:59.551Z,2.45
2023-04-16T20:15:26.354Z,2.60
2023-04-16T20:17:53.435Z,2.10
2023-04-16T20:20:22.757Z,1.92
2023-04-16T20:22:49.765Z,2.63
2023-04-16T20:25:18.775Z,2.38
2023-04-16T20:27:45.640Z,2.25
2023-04-16T20:30:13.147Z,1.90
2023-04-16T20:32:39.966Z,1.83
2023-04-16T20:35:10.478Z,2.05
2023-04-16T20:37:38.502Z,2.05
2023-04-16T20:40:13.870Z,1.95
2023-04-16T20:42:41.325Z,2.10
2023-04-16T20:45:08.933Z,2.30
2023-04-16T20:47:35.767Z,2.20
2023-04-16T20:50:03.759Z,2.00
2023-04-16T20:52:30.748Z,1.65
2023-04-16T20:54:57.918Z,1.95
2023-04-16T20:57:24.769Z,1.80
2023-04-16T20:59:51.516Z,1.80
2023-04-16T21:04:45.549Z,1.75
2023-04-16T21:07:12.257Z,1.92
2023-04-16T21:09:39.052Z,1.65
2023-04-16T21:14:32.799Z,2.10
2023-04-16T21:19:26.180Z,1.90
2023-04-16T21:24:19.632Z,1.90
2023-04-16T21:29:13.253Z,1.60
2023-04-16T21:31:40.460Z,1.65
2023-04-16T21:34:07.266Z,1.80
2023-04-16T21:39:01.032Z,1.60
2023-04-16T21:41:27.981Z,1.73
2023-04-16T21:43:54.760Z,1.80
2023-04-16T21:48:49.655Z,1.45
2023-04-16T21:51:16.548Z,1.73
2023-04-16T21:53:43.453Z,1.70
2023-04-16T21:56:10.199Z,1.63
2023-04-16T22:01:03.820Z,1.58
2023-04-16T22:03:31.139Z,1.63
2023-04-16T22:06:01.725Z,1.60
2023-04-16T22:08:30.225Z,1.85
2023-04-16T22:11:02.018Z,1.92
2023-04-16T22:13:32.254Z,1.50
2023-04-16T22:16:03.157Z,1.80
2023-04-16T22:18:33.588Z,1.70
2023-04-16T22:21:00.954Z,2.00
2023-04-16T22:23:27.749Z,1.50
2023-04-16T22:28:22.493Z,1.50
2023-04-16T22:30:49.638Z,1.40
2023-04-16T22:33:16.568Z,1.60
2023-04-16T22:35:43.382Z,1.20
2023-04-16T22:40:37.422Z,1.10
2023-04-16T22:43:04.801Z,1.50
2023-04-16T22:45:31.757Z,1.48
2023-04-16T22:47:58.743Z,1.60
2023-04-16T22:50:25.748Z,1.67
2023-04-16T22:52:52.495Z,1.98
2023-04-16T22:55:19.448Z,1.90
2023-04-16T22:57:47.441Z,1.90
2023-04-16T23:00:17.839Z,2.38
2023-04-16T23:02:45.317Z,2.42
2023-04-16T23:05:12.493Z,1.92
2023-04-16T23:07:39.991Z,2.28
2023-04-16T23:10:08.568Z,2.60
2023-04-16T23:12:38.629Z,2.38
2023-04-16T23:15:06.648Z,2.40
2023-04-16T23:17:33.931Z,2.10
2023-04-16T23:20:00.943Z,2.28
2023-04-16T23:22:27.888Z,1.80
2023-04-16T23:24:54.745Z,2.10
2023-04-16T23:29:48.365Z,1.60
2023-04-16T23:32:15.149Z,1.50
2023-04-16T23:37:09.088Z,1.50
2023-04-16T23:39:35.921Z,1.70
2023-04-16T23:44:29.906Z,1.90
2023-04-16T23:46:57.316Z,1.50
2023-04-16T23:49:24.767Z,1.70
2023-04-16T23:51:51.588Z,1.50
2023-04-16T23:54:18.353Z,1.73
2023-04-16T23:56:45.194Z,1.83
